Latest Weather Observations for Oenpelli Airport

IDD60801

Issued at 11:31 pm CST Thursday 28 July 2016 (issued every 30 minutes, with the page automatically refreshed every 10 minutes)

About weather observations | Map of weather stations | Latest weather observations for NT | Other Formats
Station Details ID: 014310 Name: OENPELLI AIRPORT Lat: -12.33 Lon: 133.01 Height: 7.5 m
Data from the previous 72 hours. | See also: Recent months at Oenpelli Airport
Date/Time
CST
Temp
°C
App
Temp
°C
Dew
Point
°C
Rel
Hum
%
Delta-T
°C
Wind Press
QNH
hPa
Press
MSL
hPa
Rain since
9am
mm
Dir  Spd
km/h
Gust
km/h
Spd
kts
Gust
kts
28/11:30pm 26.7 23.9 11.2 38 8.8 ESE 17 26 9 14 1014.7 1014.6 0.0
28/11:00pm 27.0 23.2 11.1 37 9.0 ESE 22 33 12 18 1014.6 1014.5 0.0
28/10:30pm 27.3 24.8 10.9 36 9.3 SE 15 30 8 16 1014.5 1014.4 0.0
28/10:00pm 27.8 25.3 10.9 35 9.6 SE 15 24 8 13 1014.5 1014.4 0.0
28/09:30pm 28.2 26.0 10.9 34 9.8 ESE 13 20 7 11 1014.3 1014.2 0.0
28/09:00pm 29.0 26.0 10.6 32 10.5 SE 17 30 9 16 1013.9 1013.8 0.0
28/08:30pm 29.4 26.5 11.0 32 10.5 SE 17 28 9 15 1013.4 1013.3 0.0
28/08:00pm 28.9 27.1 11.0 33 10.2 SSE 11 20 6 11 1013.0 1012.9 0.0
28/07:30pm 29.5 27.4 11.1 32 10.6 SSE 13 24 7 13 1012.5 1012.4 0.0
28/07:00pm 29.3 27.9 10.9 32 10.5 SSE 9 15 5 8 1012.0 1011.9 0.0
28/06:30pm 30.4 28.2 10.9 30 11.2 SSE 13 20 7 11 1011.6 1011.5 0.0
28/06:00pm 31.7 30.8 11.5 29 11.8 SE 7 13 4 7 1011.1 1011.0 0.0
28/05:30pm 32.2 30.3 11.9 29 12.0 ESE 13 19 7 10 1010.8 1010.7 0.0
28/05:00pm 32.5 31.3 11.6 28 12.3 SSE 9 15 5 8 1010.6 1010.5 0.0
28/04:30pm 32.9 31.1 12.0 28 12.4 ESE 13 20 7 11 1010.4 1010.3 0.0
28/04:00pm 33.1 31.3 12.1 27 12.4 SE 13 20 7 11 1010.4 1010.3 0.0
28/03:30pm 32.7 31.2 11.8 28 12.3 SE 11 20 6 11 1010.6 1010.5 0.0
28/03:00pm 33.4 31.7 12.4 28 12.5 SE 13 22 7 12 1010.9 1010.8 0.0
28/02:30pm 32.3 29.9 11.5 28 12.2 ESE 15 26 8 14 1011.3 1011.2 0.0
28/02:00pm 32.2 29.8 11.4 28 12.1 SE 15 22 8 12 1011.8 1011.7 0.0
28/01:30pm 31.7 29.6 11.0 28 12.0 ESE 13 20 7 11 1012.2 1012.1 0.0
28/01:00pm 31.4 28.4 10.7 28 11.9 SE 17 28 9 15 1012.6 1012.5 0.0
28/12:30pm 31.3 28.5 10.1 27 12.1 ESE 15 24 8 13 1013.2 1013.1 0.0
28/12:00pm 30.3 27.1 9.8 28 11.6 SE 17 30 9 16 1013.8 1013.7 0.0
28/11:30am 29.4 25.8 8.5 27 11.5 SE 17 26 9 14 1014.3 1014.2 0.0
28/11:00am 28.6 25.0 8.3 28 11.1 SE 17 26 9 14 1014.7 1014.6 0.0
28/10:30am 27.9 24.1 7.7 28 10.9 ESE 17 28 9 15 1015.2 1015.1 0.0
28/10:00am 27.0 23.4 8.4 31 10.1 ESE 17 28 9 15 1015.5 1015.4 0.0
28/09:30am 26.1 21.7 9.0 34 9.3 ESE 22 32 12 17 1015.6 1015.5 0.0
28/09:00am 25.4 21.5 9.3 36 8.8 SE 20 33 11 18 1015.6 1015.5 0.0
28/08:30am 24.5 22.3 9.3 38 8.2 SE 11 24 6 13 1015.5 1015.4 0.0
28/08:00am 23.7 21.7 10.0 42 7.5 SE 11 19 6 10 1015.4 1015.3 0.0
28/07:30am 22.2 21.1 10.0 46 6.6 SE 6 13 3 7 1015.2 1015.1 0.0
28/07:00am 22.1 20.4 9.9 46 6.6 SE 9 17 5 9 1014.9 1014.8 0.0
28/06:30am 21.8 20.1 9.7 46 6.5 SE 9 17 5 9 1014.8 1014.7 0.0
28/06:00am 20.8 19.4 9.4 48 6.1 SE 7 11 4 6 1014.7 1014.6 0.0
28/05:30am 19.9 18.7 7.9 46 6.2 ESE 4 6 2 3 1014.7 1014.6 0.0
28/05:00am 21.0 19.8 8.0 43 6.8 ESE 4 7 2 4 1014.6 1014.5 0.0
28/04:30am 22.2 20.4 8.0 40 7.4 ESE 7 11 4 6 1014.6 1014.5 0.0
28/04:00am 22.8 20.7 8.1 39 7.7 SE 9 15 5 8 1014.4 1014.3 0.0
28/03:30am 22.5 21.0 9.0 42 7.2 SE 7 13 4 7 1014.5 1014.4 0.0
28/03:00am 20.6 19.3 9.2 48 6.0 SE 6 11 3 6 1014.4 1014.3 0.0
28/02:30am 22.0 20.9 8.5 42 7.1 ESE 4 6 2 3 1014.5 1014.4 0.0
28/02:00am 23.7 22.1 8.6 38 8.1 SE 7 11 4 6 1014.7 1014.6 0.0
28/01:30am 24.6 22.2 10.1 40 8.0 ESE 13 26 7 14 1014.9 1014.8 0.0
28/01:00am 25.1 23.4 11.3 42 7.8 SE 11 17 6 9 1015.0 1014.9 0.0
28/12:30am 25.2 23.6 11.4 42 7.8 ESE 11 17 6 9 1015.0 1014.9 0.0
28/12:00am 25.7 24.1 11.5 41 8.1 ESE 11 19 6 10 1014.8 1014.7 0.0
 
Date/Time
CST
Temp
°C
App
Temp
°C
Dew
Point
°C
Rel
Hum
%
Delta-T
°C
Wind Press
QNH
hPa
Press
MSL
hPa
Rain since
9am
mm
Dir  Spd
km/h
Gust
km/h
Spd
kts
Gust
kts
27/11:30pm 26.3 24.0 11.6 40 8.4 ESE 15 26 8 14 1014.7 1014.6 0.0
27/11:00pm 26.5 24.9 11.4 39 8.6 ESE 11 17 6 9 1014.6 1014.5 0.0
27/10:30pm 27.5 24.7 11.5 37 9.2 ESE 17 26 9 14 1014.6 1014.5 0.0
27/10:00pm 27.4 26.3 11.8 38 9.0 ESE 9 17 5 9 1014.3 1014.2 0.0
27/09:30pm 27.9 26.3 12.7 39 8.9 ESE 13 22 7 12 1014.2 1014.1 0.0
27/09:00pm 25.3 25.1 11.8 43 7.7 ESE 4 6 2 3 1013.8 1013.7 0.0
27/08:30pm 25.9 25.9 11.3 40 8.3 ESE 2 4 1 2 1013.4 1013.3 0.0
27/08:00pm 27.4 27.0 11.0 36 9.3 ESE 4 6 2 3 1013.0 1012.9 0.0
27/07:30pm 28.4 27.5 10.6 33 10.1 ESE 6 7 3 4 1012.7 1012.6 0.0
27/07:00pm 29.0 28.0 10.2 31 10.6 ESE 6 7 3 4 1012.4 1012.3 0.0
27/06:30pm 30.2 29.0 10.2 29 11.4 ESE 7 11 4 6 1012.1 1012.0 0.0
27/06:00pm 31.4 29.4 10.2 27 12.1 E 11 20 6 11 1011.8 1011.7 0.0
27/05:30pm 32.1 29.2 9.6 25 12.8 ESE 15 22 8 12 1011.5 1011.4 0.0
27/05:00pm 32.3 29.2 10.4 26 12.6 ESE 17 24 9 13 1011.2 1011.1 0.0
27/04:30pm 32.7 30.5 10.7 26 12.7 SE 13 22 7 12 1011.0 1010.9 0.0
27/04:00pm 32.9 30.0 10.9 26 12.8 ESE 17 30 9 16 1011.0 1010.9 0.0
27/03:30pm 33.0 30.3 10.4 25 13.0 ESE 15 24 8 13 1011.0 1010.9 0.0
27/03:00pm 32.9 30.4 10.9 26 12.8 SE 15 28 8 15 1011.2 1011.1 0.0
27/02:30pm 32.3 29.8 9.8 25 12.8 E 13 32 7 17 1011.6 1011.5 0.0
27/02:00pm 32.6 29.2 10.6 26 12.7 ESE 19 30 10 16 1012.0 1011.9 0.0
27/01:30pm 32.7 29.9 11.3 27 12.5 ESE 17 28 9 15 1012.7 1012.6 0.0
27/01:00pm 31.6 29.0 11.9 30 11.6 ESE 17 28 9 15 1013.1 1013.0 0.0
27/12:30pm 31.1 27.8 11.5 30 11.4 SE 20 35 11 19 1013.7 1013.6 0.0
27/12:00pm 30.4 26.9 12.3 33 10.6 ESE 22 37 12 20 1014.1 1014.0 0.0
27/11:30am 29.8 26.3 12.3 34 10.2 ESE 22 33 12 18 1014.6 1014.5 0.0
27/11:00am 28.8 25.7 13.5 39 9.1 ESE 22 35 12 19 1015.0 1014.9 0.0
27/10:30am 27.9 25.3 13.8 42 8.4 ESE 20 35 11 19 1015.4 1015.3 0.0
27/10:00am 27.2 24.9 14.2 44 7.8 SE 19 26 10 14 1015.5 1015.4 0.0
27/09:30am 26.8 25.6 13.9 45 7.7 SSE 13 20 7 11 1015.6 1015.5 0.0
27/09:00am 27.0 25.2 13.4 43 8.0 ESE 15 26 8 14 1015.5 1015.4 0.0
27/08:30am 26.0 25.5 13.8 47 7.2 SE 9 17 5 9 1015.2 1015.1 0.0
27/08:00am 24.8 24.7 14.0 51 6.4 SE 7 11 4 6 1014.8 1014.7 0.0
27/07:30am 23.6 23.5 13.8 54 5.7 SE 7 11 4 6 1014.3 1014.2 0.0
27/07:00am 23.0 22.9 13.8 56 5.4 SE 7 9 4 5 1013.8 1013.7 0.0
27/06:30am 23.0 22.9 13.8 56 5.4 SE 7 9 4 5 1013.7 1013.6 0.0
27/06:00am 23.4 23.3 13.8 54 5.6 SE 7 13 4 7 1013.6 1013.5 0.0
27/05:30am 23.0 22.6 12.9 53 5.8 SE 7 9 4 5 1013.3 1013.2 0.0
27/05:00am 23.6 23.2 12.9 51 6.2 SE 7 9 4 5 1013.2 1013.1 0.0
27/04:30am 24.1 23.2 12.7 49 6.6 SE 9 15 5 8 1013.1 1013.0 0.0
27/04:00am 24.4 23.2 12.7 48 6.7 ESE 11 19 6 10 1013.0 1012.9 0.0
27/03:30am 24.5 23.3 12.8 48 6.8 ESE 11 15 6 8 1013.1 1013.0 0.0
27/03:00am 24.9 23.8 13.1 48 6.9 ESE 11 19 6 10 1012.9 1012.8 0.0
27/02:30am 25.4 24.0 13.3 47 7.1 ESE 13 20 7 11 1012.9 1012.8 0.0
27/02:00am 26.0 24.1 14.1 47 7.1 ESE 17 33 9 18 1013.0 1012.9 0.0
27/01:30am 24.7 24.9 14.8 54 5.9 E 7 9 4 5 1013.2 1013.1 0.0
27/01:00am 24.8 25.1 15.1 54 5.8 ESE 7 11 4 6 1013.4 1013.3 0.0
27/12:30am 25.3 26.0 17.0 60 5.1 ESE 9 15 5 8 1013.4 1013.3 0.0
27/12:00am 23.6 25.1 17.6 69 3.7 E 6 7 3 4 1013.6 1013.5 0.0
 
Date/Time
CST
Temp
°C
App
Temp
°C
Dew
Point
°C
Rel
Hum
%
Delta-T
°C
Wind Press
QNH
hPa
Press
MSL
hPa
Rain since
9am
mm
Dir  Spd
km/h
Gust
km/h
Spd
kts
Gust
kts
26/11:30pm 23.8 25.3 17.5 68 3.9 ENE 6 6 3 3 1013.6 1013.5 0.0
26/11:00pm 24.1 25.5 17.8 68 3.9 NE 7 9 4 5 1013.6 1013.5 0.0
26/10:30pm 24.6 26.2 17.8 66 4.3 NNE 6 7 3 4 1013.5 1013.4 0.0
26/10:00pm 24.3 26.1 17.5 66 4.2 N 4 6 2 3 1013.3 1013.2 0.0
26/09:30pm 23.4 25.6 16.4 64 4.3 CALM 0 0 0 0 1013.1 1013.0 0.0
26/09:00pm 24.6 26.6 16.1 59 5.2 CALM 0 6 0 3 1012.7 1012.6 0.0
26/08:30pm 26.3 27.9 16.0 53 6.3 N 2 4 1 2 1012.3 1012.2 0.0
26/08:00pm 27.6 28.0 16.2 49 7.0 N 9 11 5 6 1012.0 1011.9 0.0
26/07:30pm 27.8 28.2 13.7 42 8.4 NNE 4 4 2 2 1011.3 1011.2 0.0
26/07:00pm 28.1 29.0 12.8 38 9.0 CALM 0 0 0 0 1010.8 1010.7 0.0
26/06:30pm 30.5 30.3 12.9 34 10.5 ENE 6 7 3 4 1010.3 1010.2 0.0
26/06:00pm 32.1 31.6 12.8 30 11.5 ENE 7 13 4 7 1010.1 1010.0 0.0
26/05:30pm 33.0 32.1 12.6 29 12.2 ENE 9 17 5 9 1009.7 1009.6 0.0
26/05:00pm 33.5 32.2 11.4 26 13.0 ESE 9 15 5 8 1009.5 1009.4 0.0
26/04:30pm 34.1 33.0 11.9 26 13.2 E 9 15 5 8 1009.5 1009.4 0.0
26/04:00pm 33.7 32.3 12.1 27 12.8 E 11 17 6 9 1009.6 1009.5 0.0
26/03:30pm 33.4 31.9 11.9 27 12.7 ESE 11 19 6 10 1009.7 1009.6 0.0
26/03:00pm 33.1 31.5 11.6 27 12.7 ESE 11 20 6 11 1010.1 1010.0 0.0
26/02:30pm 33.5 32.8 11.9 27 12.8 SE 7 20 4 11 1010.5 1010.4 0.0
26/02:00pm 33.6 32.3 13.6 29 12.1 E 13 26 7 14 1010.9 1010.8 0.0
26/01:30pm 33.1 31.8 13.7 31 11.8 ENE 13 28 7 15 1011.3 1011.2 0.0
26/01:00pm 32.3 30.3 14.0 33 11.1 ENE 17 32 9 17 1011.8 1011.7 0.0
26/12:30pm 31.9 30.0 14.1 34 10.8 E 17 30 9 16 1012.4 1012.3 0.0
26/12:00pm 31.5 28.8 14.6 36 10.3 ENE 22 32 12 17 1012.8 1012.7 0.0
26/11:30am 31.3 28.9 14.4 35 10.3 E 20 33 11 18 1013.2 1013.1 0.0
26/11:00am 30.4 27.5 12.8 34 10.4 ESE 20 39 11 21 1013.7 1013.6 0.0
26/10:30am 30.1 26.3 12.5 34 10.4 ESE 24 33 13 18 1013.8 1013.7 0.0
26/10:00am 29.2 26.7 13.4 38 9.4 ESE 19 28 10 15 1014.0 1013.9 0.0
26/09:30am 28.5 27.0 14.3 41 8.5 ESE 15 22 8 12 1014.3 1014.2 0.0
26/09:00am 27.0 25.1 14.1 45 7.7 ESE 17 26 9 14 1014.2 1014.1 -
26/08:30am 26.5 25.3 13.9 45 7.5 ESE 13 17 7 9 1014.1 1014.0 -
26/08:00am 25.8 25.0 14.0 48 7.0 SE 11 17 6 9 1013.8 1013.7 -
26/07:30am 24.9 23.6 13.8 50 6.5 SE 13 20 7 11 1013.6 1013.5 -
26/07:00am 24.3 23.3 13.5 51 6.3 SE 11 17 6 9 1013.4 1013.3 -
26/06:00am 22.6 23.0 13.7 57 5.2 ESE 4 7 2 4 1012.8 1012.7 -
26/05:30am 22.9 22.9 13.7 56 5.4 ESE 6 7 3 4 1012.6 1012.5 -
26/05:00am 22.2 22.1 13.3 57 5.1 E 6 7 3 4 1012.6 1012.5 -
26/04:30am 23.1 23.1 13.6 55 5.5 E 6 9 3 5 1012.4 1012.3 -
26/04:00am 23.6 23.6 14.3 56 5.5 ENE 7 9 4 5 1012.2 1012.1 -
26/02:00am 25.1 24.8 14.3 51 6.4 E 9 11 5 6 1012.7 1012.6 0.0
26/01:30am 26.0 25.4 14.5 49 6.9 E 11 15 6 8 1012.9 1012.8 0.0
26/01:00am 26.1 27.2 18.0 61 5.1 ESE 9 19 5 10 1013.0 1012.9 0.0
26/12:30am 24.0 26.6 19.3 75 3.0 E 4 6 2 3 1013.2 1013.1 0.0
26/12:00am 25.1 27.0 19.7 72 3.5 NE 9 13 5 7 1013.1 1013.0 0.0

Other Formats:

Comma delimited format used in spreadsheet applications
http://www.bom.gov.au/fwo/IDD60801/IDD60801.94110.axf

JavaScript Object Notation format (JSON) in row-major order
http://www.bom.gov.au/fwo/IDD60801/IDD60801.94110.json